Airport ID:K63S
Update Time (UTC):20/01/2022 20:50
Wind Speed (Knots):2
Wind Direction (Magnetic):240
Temperature (°C):0
Dew Point (°C):0
Humidity (%):99
Altimeter (inHg):30.04
Density Altitude (Feet):
Visibility (Miles):6
Clouds (Hundreds of feet):BKN006 OVC011
Present Weather:BR
METAR:METAR K63S 202045Z AUTO 00000KT 6SM BR BKN007 OVC011 00/00 A3004 RMK A01

The data displayed is for advisory purposes only and is not to be used for flight planning or operations.